createdAt,value
2022-11-16T00:00:50.165Z,-23481.47
2022-11-16T00:02:53.107Z,-23479.25
2022-11-16T00:04:55.898Z,-23474.19
2022-11-16T00:06:58.893Z,-23478.00
2022-11-16T00:09:21.225Z,-23476.88
2022-11-16T00:11:23.799Z,-23476.56
2022-11-16T00:13:27.850Z,-23476.72
2022-11-16T00:15:30.436Z,-23473.88
2022-11-16T00:17:33.043Z,-23473.88
2022-11-16T00:19:35.809Z,-23474.97
2022-11-16T00:21:38.439Z,-23474.19
2022-11-16T00:23:41.007Z,-23475.31
2022-11-16T00:25:43.734Z,-23472.91
2022-11-16T00:27:46.405Z,-23474.50
2022-11-16T00:29:50.538Z,-23471.97
2022-11-16T00:31:53.820Z,-23472.59
2022-11-16T00:33:56.547Z,-23468.81
2022-11-16T00:36:01.350Z,-23468.31
2022-11-16T00:38:03.998Z,-23471.97
2022-11-16T00:40:08.165Z,-23466.09
2022-11-16T00:42:11.010Z,-23467.22
2022-11-16T00:44:14.393Z,-23466.44
2022-11-16T00:46:18.572Z,-23465.94
2022-11-16T00:48:21.770Z,-23466.75
2022-11-16T00:50:24.513Z,-23463.41
2022-11-16T00:52:27.130Z,-23465.94
2022-11-16T00:54:29.744Z,-23466.91
2022-11-16T00:56:32.422Z,-23471.34
2022-11-16T00:58:35.407Z,-23476.41
2022-11-16T01:00:38.311Z,-23462.63
2022-11-16T01:02:42.277Z,-23462.13
2022-11-16T01:04:44.877Z,-23462.78
2022-11-16T01:06:47.513Z,-23464.03
2022-11-16T01:08:50.269Z,-23460.41
2022-11-16T01:10:52.853Z,-23457.38
2022-11-16T01:12:55.483Z,-23456.28
2022-11-16T01:14:58.130Z,-23456.44
2022-11-16T01:17:01.246Z,-23454.69
2022-11-16T01:19:05.850Z,-23455.16
2022-11-16T01:21:09.190Z,-23454.22
2022-11-16T01:23:12.450Z,-23452.94
2022-11-16T01:25:16.057Z,-23450.72
2022-11-16T01:27:18.818Z,-23452.00
2022-11-16T01:29:21.392Z,-23461.66
2022-11-16T01:31:24.037Z,-23459.44
2022-11-16T01:33:26.828Z,-23462.47
2022-11-16T01:35:30.780Z,-23455.16
2022-11-16T01:37:33.578Z,-23451.66
2022-11-16T01:39:36.338Z,-23448.81
2022-11-16T01:41:38.993Z,-23448.03
2022-11-16T01:43:53.841Z,-23448.66
2022-11-16T01:45:56.524Z,-23451.34
2022-11-16T01:47:59.288Z,-23447.88
2022-11-16T01:50:08.337Z,-23449.78
2022-11-16T01:52:16.802Z,-23454.53
2022-11-16T01:54:20.030Z,-23448.50
2022-11-16T01:56:23.191Z,-23448.66
2022-11-16T01:58:27.324Z,-23446.75
2022-11-16T02:00:30.005Z,-23447.88
2022-11-16T02:02:32.609Z,-23450.41
2022-11-16T02:04:35.280Z,-23451.84
2022-11-16T02:06:54.443Z,-23451.19
2022-11-16T02:09:30.141Z,-23449.13
2022-11-16T02:11:51.223Z,-23452.63
2022-11-16T02:14:05.715Z,-23451.50
2022-11-16T02:16:17.687Z,-23450.09
2022-11-16T02:18:29.425Z,-23448.81
2022-11-16T02:20:54.330Z,-23448.81
2022-11-16T02:23:17.596Z,-23448.03
2022-11-16T02:25:31.617Z,-23446.28
2022-11-16T02:28:07.186Z,-23444.69
2022-11-16T02:30:11.758Z,-23445.00
2022-11-16T02:32:18.558Z,-23445.16
2022-11-16T02:34:24.202Z,-23447.22
2022-11-16T02:36:27.260Z,-23445.00
2022-11-16T02:38:33.080Z,-23443.75
2022-11-16T02:40:39.979Z,-23446.91
2022-11-16T02:42:44.836Z,-23445.47
2022-11-16T02:44:50.682Z,-23445.00
2022-11-16T02:46:58.837Z,-23443.75
2022-11-16T02:49:04.717Z,-23444.06
2022-11-16T02:51:09.114Z,-23447.38
2022-11-16T02:53:11.758Z,-23445.00
2022-11-16T02:55:14.773Z,-23445.66
2022-11-16T02:57:39.758Z,-23446.59
2022-11-16T02:59:45.375Z,-23447.06
2022-11-16T03:01:53.010Z,-23448.03
2022-11-16T03:04:02.973Z,-23450.09
2022-11-16T03:06:12.845Z,-23450.25
2022-11-16T03:08:22.485Z,-23452.16
2022-11-16T03:10:39.905Z,-23451.19
2022-11-16T03:12:43.059Z,-23452.00
2022-11-16T03:14:50.803Z,-23452.63
2022-11-16T03:16:57.095Z,-23454.69
2022-11-16T03:19:05.504Z,-23454.84
2022-11-16T03:21:15.075Z,-23455.16
2022-11-16T03:23:17.821Z,-23455.00
2022-11-16T03:25:22.130Z,-23454.84
2022-11-16T03:27:33.431Z,-23454.84
2022-11-16T03:29:42.603Z,-23455.16
2022-11-16T03:31:49.735Z,-23456.13
2022-11-16T03:33:56.164Z,-23456.91
2022-11-16T03:36:05.549Z,-23458.66
2022-11-16T03:38:11.383Z,-23456.75
2022-11-16T03:40:15.198Z,-23457.69
2022-11-16T03:42:18.826Z,-23458.03
2022-11-16T03:44:22.725Z,-23458.19
2022-11-16T03:46:25.546Z,-23459.28
2022-11-16T03:48:35.661Z,-23459.28
2022-11-16T03:50:38.819Z,-23459.59
2022-11-16T03:52:42.943Z,-23459.59
2022-11-16T03:54:45.558Z,-23458.03
2022-11-16T03:56:48.157Z,-23461.34
2022-11-16T03:58:50.806Z,-23459.75
2022-11-16T04:00:53.998Z,-23456.28
2022-11-16T04:02:56.724Z,-23459.91
2022-11-16T04:05:17.036Z,-23462.78
2022-11-16T04:07:33.688Z,-23452.63
2022-11-16T04:09:55.262Z,-23448.81
2022-11-16T04:12:30.018Z,-23452.31
2022-11-16T04:14:50.485Z,-23449.13
2022-11-16T04:17:10.725Z,-23451.03
2022-11-16T04:19:30.792Z,-23451.03
2022-11-16T04:21:58.208Z,-23451.03
2022-11-16T04:24:20.914Z,-23450.72
2022-11-16T04:26:45.298Z,-23449.28
2022-11-16T04:28:47.094Z,-23449.59
2022-11-16T04:31:09.404Z,-23453.09
2022-11-16T04:33:30.012Z,-23454.53
2022-11-16T04:35:49.582Z,-23455.00
2022-11-16T04:37:53.440Z,-23453.25
2022-11-16T04:39:56.015Z,-23453.91
2022-11-16T04:42:22.156Z,-23455.63
2022-11-16T04:44:30.001Z,-23459.59
2022-11-16T04:46:54.895Z,-23459.91
2022-11-16T04:48:57.467Z,-23460.88
2022-11-16T04:51:00.078Z,-23457.69
2022-11-16T04:53:03.250Z,-23461.81
2022-11-16T04:55:06.773Z,-23463.88
2022-11-16T04:57:11.003Z,-23464.03
2022-11-16T04:59:14.313Z,-23465.63
2022-11-16T05:01:16.942Z,-23471.66
2022-11-16T05:03:19.579Z,-23472.44
2022-11-16T05:05:22.467Z,-23477.53
2022-11-16T05:07:25.227Z,-23475.94
2022-11-16T05:09:27.932Z,-23474.03
2022-11-16T05:11:30.613Z,-23471.97
2022-11-16T05:13:34.589Z,-23470.22
2022-11-16T05:15:37.323Z,-23469.59
2022-11-16T05:17:40.023Z,-23469.75
2022-11-16T05:20:00.322Z,-23467.22
2022-11-16T05:22:02.937Z,-23466.25
2022-11-16T05:24:23.721Z,-23465.94
2022-11-16T05:26:26.407Z,-23468.31
2022-11-16T05:28:29.021Z,-23468.81
2022-11-16T05:30:33.008Z,-23465.47
2022-11-16T05:32:35.629Z,-23463.09
2022-11-16T05:34:38.266Z,-23462.78
2022-11-16T05:36:40.898Z,-23461.50
2022-11-16T05:38:43.574Z,-23458.97
2022-11-16T05:40:46.219Z,-23459.13
2022-11-16T05:42:48.818Z,-23460.72
2022-11-16T05:44:51.616Z,-23460.88
2022-11-16T05:46:56.151Z,-23460.56
2022-11-16T05:48:58.873Z,-23460.41
2022-11-16T05:51:01.673Z,-23460.25
2022-11-16T05:53:04.341Z,-23461.34
2022-11-16T05:55:07.638Z,-23461.66
2022-11-16T05:57:10.269Z,-23460.88
2022-11-16T05:59:16.606Z,-23464.03
2022-11-16T06:01:19.373Z,-23462.78
2022-11-16T06:03:23.438Z,-23462.13
2022-11-16T06:05:26.174Z,-23469.28
2022-11-16T06:07:28.887Z,-23463.09
2022-11-16T06:09:31.527Z,-23465.00
2022-11-16T06:11:36.239Z,-23462.13
2022-11-16T06:13:39.678Z,-23467.84
2022-11-16T06:15:42.396Z,-23462.63
2022-11-16T06:17:44.982Z,-23459.91
2022-11-16T06:19:49.019Z,-23459.28
2022-11-16T06:21:51.742Z,-23459.91
2022-11-16T06:23:54.634Z,-23460.09
2022-11-16T06:25:57.625Z,-23460.56
2022-11-16T06:28:03.993Z,-23459.91
2022-11-16T06:30:10.128Z,-23460.25
2022-11-16T06:32:12.817Z,-23459.91
2022-11-16T06:34:15.658Z,-23459.59
2022-11-16T06:36:19.655Z,-23459.91
2022-11-16T06:38:23.641Z,-23460.09
2022-11-16T06:40:27.062Z,-23458.66
2022-11-16T06:42:29.943Z,-23460.09
2022-11-16T06:44:32.680Z,-23461.50
2022-11-16T06:46:35.284Z,-23460.72
2022-11-16T06:48:38.033Z,-23462.31
2022-11-16T06:50:40.807Z,-23460.25
2022-11-16T06:52:46.188Z,-23462.47
2022-11-16T06:54:48.776Z,-23460.56
2022-11-16T06:56:51.476Z,-23462.13
2022-11-16T06:58:54.119Z,-23461.81
2022-11-16T07:00:56.946Z,-23462.78
2022-11-16T07:02:59.615Z,-23461.19
2022-11-16T07:05:03.758Z,-23465.00
2022-11-16T07:07:07.201Z,-23463.41
2022-11-16T07:09:11.556Z,-23466.44
2022-11-16T07:11:14.159Z,-23465.00
2022-11-16T07:13:16.847Z,-23468.97
2022-11-16T07:15:19.431Z,-23471.03
2022-11-16T07:17:22.015Z,-23474.81
2022-11-16T07:19:24.716Z,-23472.91
2022-11-16T07:21:27.353Z,-23472.91
2022-11-16T07:23:32.190Z,-23472.28
2022-11-16T07:25:36.263Z,-23471.03
2022-11-16T07:27:39.015Z,-23473.25
2022-11-16T07:29:41.632Z,-23473.41
2022-11-16T07:31:44.359Z,-23472.59
2022-11-16T07:33:47.011Z,-23472.59
2022-11-16T07:35:49.599Z,-23473.41
2022-11-16T07:37:52.232Z,-23473.09
2022-11-16T07:39:54.860Z,-23478.63
2022-11-16T07:41:58.880Z,-23476.56
2022-11-16T07:44:01.519Z,-23474.81
2022-11-16T07:46:45.380Z,-23479.09
2022-11-16T07:48:27.499Z,-23475.47
2022-11-16T07:50:30.150Z,-23480.69
2022-11-16T07:52:32.908Z,-23479.59
2022-11-16T07:54:35.541Z,-23478.94
2022-11-16T07:56:38.126Z,-23483.06
2022-11-16T07:58:42.207Z,-23480.38
2022-11-16T08:00:44.849Z,-23483.22
2022-11-16T08:02:47.465Z,-23482.75
2022-11-16T08:04:50.954Z,-23486.41
2022-11-16T08:06:53.651Z,-23486.56
2022-11-16T08:08:58.529Z,-23484.19
2022-11-16T08:11:02.239Z,-23483.84
2022-11-16T08:13:05.743Z,-23487.66
2022-11-16T08:15:11.298Z,-23485.59
2022-11-16T08:17:13.917Z,-23486.72
2022-11-16T08:19:16.616Z,-23492.59
2022-11-16T08:21:20.211Z,-23497.34
2022-11-16T08:23:22.925Z,-23501.63
2022-11-16T08:25:25.546Z,-23501.78
2022-11-16T08:27:28.560Z,-23498.75
2022-11-16T08:29:31.200Z,-23501.47
2022-11-16T08:31:35.153Z,-23500.03
2022-11-16T08:33:37.807Z,-23516.97
2022-11-16T08:35:40.489Z,-23546.09
2022-11-16T08:37:43.081Z,-23525.06
2022-11-16T08:39:45.727Z,-23530.59
2022-11-16T08:41:48.365Z,-23512.53
2022-11-16T08:43:53.223Z,-23512.84
2022-11-16T08:45:56.060Z,-23510.97
2022-11-16T08:48:04.760Z,-23510.31
2022-11-16T08:50:08.328Z,-23503.50
2022-11-16T08:52:11.465Z,-23501.28
2022-11-16T08:54:14.530Z,-23501.94
2022-11-16T08:56:19.158Z,-23500.50
2022-11-16T08:58:21.786Z,-23504.00
2022-11-16T09:00:24.467Z,-23506.06
2022-11-16T09:02:27.203Z,-23508.59
2022-11-16T09:04:35.769Z,-23505.72
2022-11-16T09:06:39.940Z,-23504.00
2022-11-16T09:08:44.201Z,-23504.47
2022-11-16T09:10:46.851Z,-23504.47
2022-11-16T09:12:49.553Z,-23509.22
2022-11-16T09:14:52.233Z,-23507.63
2022-11-16T09:16:54.887Z,-23508.09
2022-11-16T09:18:57.494Z,-23511.59
2022-11-16T09:21:01.507Z,-23501.78
2022-11-16T09:23:04.143Z,-23511.44
2022-11-16T09:25:08.218Z,-23515.06
2022-11-16T09:27:10.883Z,-23522.53
2022-11-16T09:29:15.378Z,-23521.56
2022-11-16T09:31:23.197Z,-23526.31
2022-11-16T09:33:26.261Z,-23546.75
2022-11-16T09:35:28.884Z,-23578.06
2022-11-16T09:37:32.926Z,-23579.47
2022-11-16T09:39:35.764Z,-23584.38
2022-11-16T09:42:08.199Z,-23547.53
2022-11-16T09:44:18.987Z,-23520.00
2022-11-16T09:46:27.839Z,-23516.81
2022-11-16T09:48:36.982Z,-23514.44
2022-11-16T09:50:47.295Z,-23505.91
2022-11-16T09:52:56.407Z,-23515.56
2022-11-16T09:55:01.713Z,-23524.09
2022-11-16T09:57:12.450Z,-23524.25
2022-11-16T09:59:22.980Z,-23535.19
2022-11-16T10:01:30.166Z,-23523.00
2022-11-16T10:03:41.176Z,-23525.84
2022-11-16T10:05:49.704Z,-23528.22
2022-11-16T10:08:00.108Z,-23539.16
2022-11-16T10:10:02.830Z,-23539.16
2022-11-16T10:12:16.338Z,-23529.16
2022-11-16T10:14:57.427Z,-23530.75
2022-11-16T10:17:08.001Z,-23516.81
2022-11-16T10:19:20.509Z,-23510.66
2022-11-16T10:21:37.264Z,-23510.66
2022-11-16T10:23:52.454Z,-23516.34
2022-11-16T10:25:59.258Z,-23515.06
2022-11-16T10:28:36.268Z,-23517.94
2022-11-16T10:30:47.583Z,-23526.16
2022-11-16T10:32:54.308Z,-23523.63
2022-11-16T10:35:01.267Z,-23527.44
2022-11-16T10:37:08.357Z,-23526.78
2022-11-16T10:39:15.245Z,-23523.63
2022-11-16T10:41:21.269Z,-23530.28
2022-11-16T10:43:26.912Z,-23523.00
2022-11-16T10:45:36.647Z,-23523.31
2022-11-16T10:47:44.739Z,-23523.00
2022-11-16T10:49:53.128Z,-23518.41
2022-11-16T10:51:55.917Z,-23512.53
2022-11-16T10:53:58.702Z,-23511.59
2022-11-16T10:56:13.227Z,-23512.22
2022-11-16T10:58:15.862Z,-23517.28
2022-11-16T11:00:35.276Z,-23516.66
2022-11-16T11:02:39.164Z,-23514.44
2022-11-16T11:04:41.856Z,-23522.69
2022-11-16T11:06:45.156Z,-23527.75
2022-11-16T11:08:47.954Z,-23530.91
2022-11-16T11:11:01.554Z,-23543.88
2022-11-16T11:13:23.474Z,-23546.44
2022-11-16T11:15:27.476Z,-23570.78
2022-11-16T11:17:31.414Z,-23554.50
2022-11-16T11:19:34.012Z,-23552.13
2022-11-16T11:21:36.705Z,-23545.94
2022-11-16T11:23:44.704Z,-23540.72
2022-11-16T11:25:53.627Z,-23539.78
2022-11-16T11:28:07.031Z,-23543.56
2022-11-16T11:30:20.964Z,-23546.09
2022-11-16T11:32:27.153Z,-23545.63
2022-11-16T11:34:32.962Z,-23539.94
2022-11-16T11:36:40.424Z,-23551.16
2022-11-16T11:38:58.285Z,-23563.19
2022-11-16T11:41:04.954Z,-23577.56
2022-11-16T11:43:23.806Z,-23575.53
2022-11-16T11:45:33.359Z,-23579.63
2022-11-16T11:48:00.955Z,-23576.47
2022-11-16T11:50:11.453Z,-23592.59
2022-11-16T11:52:20.275Z,-23580.91
2022-11-16T11:54:27.778Z,-23581.84
2022-11-16T11:56:34.018Z,-23578.84
2022-11-16T11:58:40.324Z,-23585.16
2022-11-16T12:00:51.351Z,-23581.53
2022-11-16T12:03:23.585Z,-23586.13
2022-11-16T12:05:49.450Z,-23591.50
2022-11-16T12:08:12.372Z,-23584.22
2022-11-16T12:10:22.468Z,-23584.84
2022-11-16T12:12:38.232Z,-23577.72
2022-11-16T12:15:03.527Z,-23575.03
2022-11-16T12:17:12.876Z,-23575.38
2022-11-16T12:19:42.537Z,-23570.78
2022-11-16T12:21:57.727Z,-23568.88
2022-11-16T12:24:25.526Z,-23566.03
2022-11-16T12:26:39.786Z,-23570.16
2022-11-16T12:28:56.123Z,-23579.47
2022-11-16T12:31:22.278Z,-23583.59
2022-11-16T12:33:35.976Z,-23566.19
2022-11-16T12:35:49.411Z,-23577.41
2022-11-16T12:37:58.536Z,-23590.06
2022-11-16T12:40:19.769Z,-23591.19
2022-11-16T12:42:37.635Z,-23604.44
2022-11-16T12:45:20.113Z,-23603.66
2022-11-16T12:47:34.328Z,-23608.06
2022-11-16T12:50:04.051Z,-23611.53
2022-11-16T12:52:22.388Z,-23615.34
2022-11-16T12:55:03.944Z,-23625.13
2022-11-16T12:57:11.057Z,-23614.56
2022-11-16T12:59:25.357Z,-23615.34
2022-11-16T13:01:36.657Z,-23613.59
2022-11-16T13:03:48.159Z,-23614.88
2022-11-16T13:05:57.628Z,-23625.75
2022-11-16T13:08:04.404Z,-23622.91
2022-11-16T13:10:16.981Z,-23621.34
2022-11-16T13:12:24.149Z,-23619.44
2022-11-16T13:14:33.609Z,-23609.03
2022-11-16T13:16:36.446Z,-23610.44
2022-11-16T13:18:43.235Z,-23616.91
2022-11-16T13:20:53.410Z,-23602.41
2022-11-16T13:23:02.677Z,-23617.53
2022-11-16T13:25:16.220Z,-23612.50
2022-11-16T13:27:32.946Z,-23614.38
2022-11-16T13:29:41.518Z,-23611.53
2022-11-16T13:31:50.739Z,-23615.34
2022-11-16T13:33:58.712Z,-23613.13
2022-11-16T13:36:43.724Z,-23596.53
2022-11-16T13:38:54.691Z,-23604.28
2022-11-16T13:41:29.873Z,-23599.84
2022-11-16T13:43:32.556Z,-23593.53
2022-11-16T13:45:39.027Z,-23592.28
2022-11-16T13:47:41.698Z,-23586.28
2022-11-16T13:49:52.479Z,-23574.72
2022-11-16T13:52:03.423Z,-23574.88
2022-11-16T13:54:46.198Z,-23574.88
2022-11-16T13:56:50.569Z,-23570.47
2022-11-16T13:58:55.582Z,-23573.47
2022-11-16T14:01:02.652Z,-23572.84
2022-11-16T14:03:28.600Z,-23572.03
2022-11-16T14:05:41.522Z,-23571.72
2022-11-16T14:07:47.253Z,-23573.47
2022-11-16T14:09:50.426Z,-23572.03
2022-11-16T14:11:53.184Z,-23576.16
2022-11-16T14:13:56.295Z,-23576.16
2022-11-16T14:16:32.443Z,-23578.22
2022-11-16T14:18:38.101Z,-23577.56
2022-11-16T14:21:05.819Z,-23582.47
2022-11-16T14:23:16.973Z,-23584.06
2022-11-16T14:25:33.184Z,-23579.31
2022-11-16T14:27:41.309Z,-23571.41
2022-11-16T14:29:56.540Z,-23569.84
2022-11-16T14:32:02.810Z,-23567.31
2022-11-16T14:34:05.472Z,-23563.50
2022-11-16T14:36:11.388Z,-23562.56
2022-11-16T14:38:27.767Z,-23562.25
2022-11-16T14:40:44.007Z,-23563.19
2022-11-16T14:43:15.546Z,-23561.13
2022-11-16T14:45:18.687Z,-23562.25
2022-11-16T14:47:26.143Z,-23561.94
2022-11-16T14:49:29.717Z,-23562.56
2022-11-16T14:51:36.560Z,-23562.09
2022-11-16T14:53:45.319Z,-23559.88
2022-11-16T14:55:48.022Z,-23559.56
2022-11-16T14:58:07.059Z,-23557.19
2022-11-16T15:00:20.001Z,-23557.81
2022-11-16T15:02:25.551Z,-23559.22
2022-11-16T15:04:28.399Z,-23555.91
2022-11-16T15:06:39.302Z,-23554.66
2022-11-16T15:08:46.032Z,-23551.81
2022-11-16T15:10:52.594Z,-23548.31
2022-11-16T15:12:57.052Z,-23546.44
2022-11-16T15:15:05.295Z,-23544.06
2022-11-16T15:17:08.337Z,-23542.94
2022-11-16T15:19:13.255Z,-23541.19
2022-11-16T15:21:23.323Z,-23538.19
2022-11-16T15:23:30.611Z,-23534.06
2022-11-16T15:25:36.374Z,-23532.34
2022-11-16T15:27:41.318Z,-23528.22
2022-11-16T15:29:44.793Z,-23528.22
2022-11-16T15:31:48.230Z,-23525.22
2022-11-16T15:33:50.953Z,-23522.03
2022-11-16T15:35:55.401Z,-23521.41
2022-11-16T15:38:02.505Z,-23520.31
2022-11-16T15:40:10.362Z,-23520.00
2022-11-16T15:42:15.697Z,-23515.41
2022-11-16T15:44:21.233Z,-23514.75
2022-11-16T15:46:25.961Z,-23514.59
2022-11-16T15:48:29.884Z,-23509.06
2022-11-16T15:50:32.778Z,-23509.38
2022-11-16T15:52:43.420Z,-23507.78
2022-11-16T15:55:03.804Z,-23502.56
2022-11-16T15:57:13.049Z,-23492.59
2022-11-16T15:59:28.571Z,-23491.47
2022-11-16T16:01:31.660Z,-23491.00
2022-11-16T16:03:37.349Z,-23490.53
2022-11-16T16:05:41.738Z,-23492.91
2022-11-16T16:07:45.846Z,-23494.00
2022-11-16T16:09:48.503Z,-23491.31
2022-11-16T16:11:51.693Z,-23497.66
2022-11-16T16:14:00.543Z,-23497.34
2022-11-16T16:16:25.977Z,-23493.84
2022-11-16T16:18:41.404Z,-23497.19
2022-11-16T16:20:49.570Z,-23496.06
2022-11-16T16:22:54.164Z,-23491.00
2022-11-16T16:24:56.970Z,-23489.56
2022-11-16T16:26:59.624Z,-23488.63
2022-11-16T16:29:03.646Z,-23492.91
2022-11-16T16:31:06.618Z,-23486.09
2022-11-16T16:33:19.417Z,-23482.13
2022-11-16T16:35:23.396Z,-23481.00
2022-11-16T16:37:28.858Z,-23480.53
2022-11-16T16:39:33.358Z,-23481.16
2022-11-16T16:41:36.260Z,-23482.59
2022-11-16T16:43:38.999Z,-23477.53
2022-11-16T16:45:44.118Z,-23477.69
2022-11-16T16:47:46.803Z,-23481.31
2022-11-16T16:49:50.058Z,-23477.69
2022-11-16T16:51:52.692Z,-23475.31
2022-11-16T16:53:55.328Z,-23474.81
2022-11-16T16:55:57.964Z,-23471.66
2022-11-16T16:58:00.565Z,-23469.13
2022-11-16T17:00:03.622Z,-23469.91
2022-11-16T17:02:07.630Z,-23467.38
2022-11-16T17:04:10.286Z,-23467.06
2022-11-16T17:06:12.969Z,-23465.78
2022-11-16T17:08:15.585Z,-23464.03
2022-11-16T17:10:18.479Z,-23462.31
2022-11-16T17:12:21.129Z,-23457.69
2022-11-16T17:14:24.566Z,-23459.91
2022-11-16T17:16:27.316Z,-23462.94
2022-11-16T17:18:31.518Z,-23460.88
2022-11-16T17:20:34.181Z,-23464.38
2022-11-16T17:22:37.469Z,-23459.28
2022-11-16T17:24:40.145Z,-23457.06
2022-11-16T17:26:42.818Z,-23455.47
2022-11-16T17:28:45.404Z,-23455.97
2022-11-16T17:30:48.022Z,-23462.13
2022-11-16T17:32:50.748Z,-23462.13
2022-11-16T17:34:54.736Z,-23461.81
2022-11-16T17:36:57.458Z,-23462.78
2022-11-16T17:39:00.165Z,-23468.50
2022-11-16T17:41:06.596Z,-23467.06
2022-11-16T17:43:09.201Z,-23467.22
2022-11-16T17:45:12.165Z,-23468.81
2022-11-16T17:47:14.811Z,-23469.28
2022-11-16T17:49:17.411Z,-23467.06
2022-11-16T17:51:23.402Z,-23465.63
2022-11-16T17:53:31.242Z,-23464.69
2022-11-16T17:55:35.282Z,-23460.41
2022-11-16T17:57:37.916Z,-23459.91
2022-11-16T17:59:40.501Z,-23459.28
2022-11-16T18:01:43.153Z,-23456.44
2022-11-16T18:03:46.050Z,-23456.13
2022-11-16T18:05:48.674Z,-23458.50
2022-11-16T18:07:52.639Z,-23457.06
2022-11-16T18:09:55.436Z,-23458.66
2022-11-16T18:11:58.471Z,-23460.41
2022-11-16T18:14:02.043Z,-23461.97
2022-11-16T18:16:06.250Z,-23459.91
2022-11-16T18:18:08.885Z,-23458.03
2022-11-16T18:20:12.830Z,-23458.34
2022-11-16T18:22:15.493Z,-23459.59
2022-11-16T18:24:19.476Z,-23457.84
2022-11-16T18:26:24.183Z,-23458.34
2022-11-16T18:28:27.053Z,-23455.16
2022-11-16T18:30:29.718Z,-23454.84
2022-11-16T18:32:33.406Z,-23458.66
2022-11-16T18:34:36.008Z,-23463.88
2022-11-16T18:36:38.653Z,-23458.34
2022-11-16T18:38:41.411Z,-23457.06
2022-11-16T18:40:45.459Z,-23456.28
2022-11-16T18:42:48.074Z,-23452.78
2022-11-16T18:44:51.279Z,-23452.63
2022-11-16T18:46:53.958Z,-23445.81
2022-11-16T18:48:57.550Z,-23446.28
2022-11-16T18:51:00.542Z,-23444.38
2022-11-16T18:53:03.252Z,-23437.06
2022-11-16T18:55:06.873Z,-23437.06
2022-11-16T18:57:11.185Z,-23439.94
2022-11-16T18:59:13.800Z,-23436.91
2022-11-16T19:01:18.617Z,-23436.13
2022-11-16T19:03:21.489Z,-23434.84
2022-11-16T19:05:24.153Z,-23428.34
2022-11-16T19:07:26.787Z,-23437.88
2022-11-16T19:09:29.547Z,-23427.84
2022-11-16T19:11:32.366Z,-23425.47
2022-11-16T19:13:37.022Z,-23423.72
2022-11-16T19:15:42.407Z,-23425.97
2022-11-16T19:18:14.120Z,-23427.84
2022-11-16T19:20:09.365Z,-23422.78
2022-11-16T19:22:12.023Z,-23419.94
2022-11-16T19:24:14.823Z,-23421.81
2022-11-16T19:26:19.516Z,-23419.28
2022-11-16T19:28:22.188Z,-23420.72
2022-11-16T19:30:26.296Z,-23417.22
2022-11-16T19:32:28.972Z,-23412.94
2022-11-16T19:34:33.429Z,-23412.13
2022-11-16T19:36:38.048Z,-23410.41
2022-11-16T19:38:41.103Z,-23408.34
2022-11-16T19:40:43.804Z,-23408.50
2022-11-16T19:42:46.731Z,-23405.16
2022-11-16T19:44:49.429Z,-23402.78
2022-11-16T19:46:54.456Z,-23403.41
2022-11-16T19:48:57.737Z,-23403.09
2022-11-16T19:51:05.406Z,-23401.81
2022-11-16T19:53:08.151Z,-23402.44
2022-11-16T19:55:10.837Z,-23408.50
2022-11-16T19:57:14.298Z,-23404.84
2022-11-16T19:59:17.021Z,-23403.72
2022-11-16T20:01:21.339Z,-23402.13
2022-11-16T20:03:25.558Z,-23402.78
2022-11-16T20:05:30.110Z,-23402.63
2022-11-16T20:07:32.892Z,-23403.09
2022-11-16T20:09:35.860Z,-23402.63
2022-11-16T20:11:40.336Z,-23403.88
2022-11-16T20:13:43.436Z,-23403.09
2022-11-16T20:15:46.121Z,-23403.41
2022-11-16T20:17:48.793Z,-23403.09
2022-11-16T20:19:52.911Z,-23403.72
2022-11-16T20:21:59.380Z,-23397.84
2022-11-16T20:24:06.676Z,-23393.41
2022-11-16T20:26:11.901Z,-23398.78
2022-11-16T20:28:14.683Z,-23394.03
2022-11-16T20:30:18.131Z,-23393.22
2022-11-16T20:32:20.787Z,-23396.72
2022-11-16T20:34:23.460Z,-23393.88
2022-11-16T20:36:29.666Z,-23392.91
2022-11-16T20:38:33.641Z,-23391.66
2022-11-16T20:40:36.439Z,-23394.19
2022-11-16T20:42:39.151Z,-23390.84
2022-11-16T20:44:41.826Z,-23388.47
2022-11-16T20:46:45.089Z,-23390.06
2022-11-16T20:48:47.877Z,-23387.69
2022-11-16T20:50:54.168Z,-23391.34
2022-11-16T20:52:58.294Z,-23388.16
2022-11-16T20:55:01.007Z,-23388.63
2022-11-16T20:57:04.603Z,-23388.16
2022-11-16T20:59:07.679Z,-23387.53
2022-11-16T21:01:16.171Z,-23390.53
2022-11-16T21:03:19.785Z,-23389.91
2022-11-16T21:05:22.807Z,-23389.09
2022-11-16T21:07:25.715Z,-23392.44
2022-11-16T21:09:49.792Z,-23392.59
2022-11-16T21:12:10.008Z,-23391.34
2022-11-16T21:14:18.584Z,-23394.19
2022-11-16T21:16:21.319Z,-23395.78
2022-11-16T21:18:29.353Z,-23393.88
2022-11-16T21:20:33.353Z,-23392.59
2022-11-16T21:22:36.026Z,-23392.91
2022-11-16T21:24:40.329Z,-23393.22
2022-11-16T21:26:43.207Z,-23392.44
2022-11-16T21:28:45.932Z,-23395.00
2022-11-16T21:30:59.134Z,-23397.06
2022-11-16T21:33:01.961Z,-23399.44
2022-11-16T21:35:05.286Z,-23399.59
2022-11-16T21:37:07.983Z,-23396.41
2022-11-16T21:39:10.646Z,-23391.00
2022-11-16T21:41:16.582Z,-23395.47
2022-11-16T21:43:19.725Z,-23395.31
2022-11-16T21:45:22.447Z,-23395.16
2022-11-16T21:47:25.151Z,-23396.25
2022-11-16T21:49:27.984Z,-23397.84
2022-11-16T21:51:30.799Z,-23396.41
2022-11-16T21:53:34.527Z,-23395.16
2022-11-16T21:55:37.460Z,-23395.78
2022-11-16T21:57:41.757Z,-23393.22
2022-11-16T21:59:44.575Z,-23392.91
2022-11-16T22:02:02.695Z,-23394.03
2022-11-16T22:04:23.177Z,-23397.53
2022-11-16T22:06:43.260Z,-23394.81
2022-11-16T22:08:46.962Z,-23393.88
2022-11-16T22:10:51.343Z,-23388.16
2022-11-16T22:12:55.478Z,-23388.16
2022-11-16T22:14:58.646Z,-23390.06
2022-11-16T22:17:01.380Z,-23391.34
2022-11-16T22:19:04.055Z,-23394.03
2022-11-16T22:21:07.389Z,-23388.78
2022-11-16T22:23:10.157Z,-23392.59
2022-11-16T22:25:14.045Z,-23392.44
2022-11-16T22:27:17.924Z,-23394.81
2022-11-16T22:29:22.033Z,-23394.50
2022-11-16T22:31:24.748Z,-23396.25
2022-11-16T22:33:27.447Z,-23397.53
2022-11-16T22:35:30.317Z,-23398.78
2022-11-16T22:37:33.009Z,-23401.19
2022-11-16T22:39:36.711Z,-23399.28
2022-11-16T22:41:39.450Z,-23407.22
2022-11-16T22:43:42.213Z,-23403.09
2022-11-16T22:45:46.362Z,-23402.78
2022-11-16T22:47:54.528Z,-23406.09
2022-11-16T22:49:57.472Z,-23404.34
2022-11-16T22:52:00.217Z,-23411.50
2022-11-16T22:54:04.891Z,-23402.94
2022-11-16T22:56:09.135Z,-23401.50
2022-11-16T22:58:11.823Z,-23400.22
2022-11-16T23:00:15.423Z,-23406.28
2022-11-16T23:02:19.480Z,-23409.75
2022-11-16T23:04:22.237Z,-23406.28
2022-11-16T23:06:25.162Z,-23404.34
2022-11-16T23:08:28.621Z,-23402.28
2022-11-16T23:10:51.291Z,-23401.81
2022-11-16T23:13:12.143Z,-23402.13
2022-11-16T23:15:32.733Z,-23402.44
2022-11-16T23:17:36.751Z,-23402.28
2022-11-16T23:19:57.242Z,-23399.28
2022-11-16T23:22:18.456Z,-23399.13
2022-11-16T23:24:38.979Z,-23400.22
2022-11-16T23:26:59.288Z,-23400.38
2022-11-16T23:29:04.179Z,-23399.28
2022-11-16T23:31:07.120Z,-23404.34
2022-11-16T23:33:11.702Z,-23405.00
2022-11-16T23:35:14.523Z,-23401.81
2022-11-16T23:37:17.338Z,-23401.97
2022-11-16T23:39:20.174Z,-23400.88
2022-11-16T23:41:40.262Z,-23402.44
2022-11-16T23:43:56.835Z,-23402.44
2022-11-16T23:45:59.521Z,-23403.72
2022-11-16T23:48:02.237Z,-23410.25
2022-11-16T23:50:07.052Z,-23403.09
2022-11-16T23:52:09.772Z,-23401.97
2022-11-16T23:54:12.470Z,-23400.38
2022-11-16T23:56:15.104Z,-23402.44
2022-11-16T23:58:17.822Z,-23410.72
